createdAt,value
2022-12-08T00:01:50.354Z,100449.66
2022-12-08T00:04:54.015Z,100456.38
2022-12-08T00:07:58.055Z,100459.06
2022-12-08T00:10:49.631Z,100453.19
2022-12-08T00:13:33.471Z,100447.78
2022-12-08T00:16:16.999Z,100450.72
2022-12-08T00:19:00.463Z,100456.91
2022-12-08T00:21:43.920Z,100457.97
2022-12-08T00:24:32.396Z,100457.47
2022-12-08T00:27:18.155Z,100454.50
2022-12-08T00:30:02.067Z,100461.50
2022-12-08T00:32:45.510Z,100451.81
2022-12-08T00:35:28.964Z,100448.59
2022-12-08T00:38:12.522Z,100447.53
2022-12-08T00:40:55.997Z,100445.94
2022-12-08T00:43:39.930Z,100448.31
2022-12-08T00:46:23.436Z,100436.81
2022-12-08T00:49:07.783Z,100432.25
2022-12-08T00:51:51.878Z,100433.81
2022-12-08T00:54:35.813Z,100434.06
2022-12-08T00:57:19.258Z,100428.19
2022-12-08T01:55:37.450Z,100399.81
2022-12-08T01:58:32.466Z,100386.06
2022-12-08T02:09:38.506Z,100376.44
2022-12-08T02:12:22.287Z,100379.47
2022-12-08T02:15:06.476Z,100367.09
2022-12-08T02:18:22.618Z,100368.97
2022-12-08T02:21:40.250Z,100366.28
2022-12-08T02:24:41.266Z,100364.06
2022-12-08T02:28:03.222Z,100370.06
2022-12-08T02:31:39.798Z,100355.78
2022-12-08T02:34:47.664Z,100355.47
2022-12-08T02:37:45.828Z,100357.09
2022-12-08T02:40:42.565Z,100354.28
2022-12-08T02:43:43.744Z,100349.69
2022-12-08T02:46:43.526Z,100346.47
2022-12-08T02:49:32.967Z,100339.09
2022-12-08T02:52:19.283Z,100332.81
2022-12-08T02:55:14.814Z,100340.88
2022-12-08T02:58:41.024Z,100334.38
2022-12-08T03:01:42.826Z,100319.59
2022-12-08T03:04:35.134Z,100315.09
2022-12-08T03:07:47.747Z,100315.81
2022-12-08T03:10:48.334Z,100313.50
2022-12-08T03:13:44.075Z,100316.69
2022-12-08T03:16:30.449Z,100306.44
2022-12-08T03:19:26.657Z,100305.34
2022-12-08T03:22:13.711Z,100308.06
2022-12-08T03:24:58.286Z,100295.41
2022-12-08T03:27:42.147Z,100295.22
2022-12-08T03:30:29.478Z,100289.00
2022-12-08T03:33:33.791Z,100290.41
2022-12-08T03:36:19.122Z,100285.78
2022-12-08T04:00:33.335Z,100252.69
2022-12-08T04:03:17.631Z,100254.56
2022-12-08T04:06:01.847Z,100239.47
2022-12-08T04:08:46.323Z,100243.56
2022-12-08T04:11:30.553Z,100234.19
2022-12-08T04:14:14.940Z,100224.53
2022-12-08T04:16:59.092Z,100232.59
2022-12-08T04:19:43.620Z,100228.84
2022-12-08T04:22:28.059Z,100228.78
2022-12-08T04:25:12.572Z,100235.50
2022-12-08T04:27:56.971Z,100227.31
2022-12-08T04:30:41.411Z,100228.06
2022-12-08T04:33:25.756Z,100226.25
2022-12-08T04:36:10.276Z,100221.88
2022-12-08T04:38:54.701Z,100222.59
2022-12-08T04:41:39.201Z,100222.19
2022-12-08T04:44:23.613Z,100220.00
2022-12-08T04:47:08.013Z,100218.88
2022-12-08T04:49:52.564Z,100217.34
2022-12-08T04:52:37.499Z,100222.69
2022-12-08T04:55:21.881Z,100220.81
2022-12-08T04:58:06.253Z,100215.00
2022-12-08T05:00:51.701Z,100214.53
2022-12-08T05:03:36.207Z,100223.84
2022-12-08T05:06:20.769Z,100207.16
2022-12-08T05:09:05.361Z,100210.34
2022-12-08T05:11:50.055Z,100202.31
2022-12-08T05:14:34.755Z,100202.75
2022-12-08T05:17:19.622Z,100192.22
2022-12-08T05:20:04.349Z,100198.41
2022-12-08T05:22:49.310Z,100202.00
2022-12-08T05:25:33.258Z,100196.09
2022-12-08T05:28:40.692Z,100215.31
2022-12-08T05:31:20.322Z,100210.69
2022-12-08T05:34:04.015Z,100204.16
2022-12-08T05:36:47.462Z,100199.06
2022-12-08T05:39:31.306Z,100207.13
2022-12-08T05:42:14.692Z,100199.91
2022-12-08T05:44:58.168Z,100196.13
2022-12-08T05:47:41.558Z,100204.38
2022-12-08T05:50:25.879Z,100196.63
2022-12-08T05:53:11.979Z,100203.88
2022-12-08T05:55:55.650Z,100201.09
2022-12-08T05:58:39.052Z,100192.09
2022-12-08T06:01:27.589Z,100188.28
2022-12-08T06:04:11.075Z,100188.22
2022-12-08T06:06:54.464Z,100188.22
2022-12-08T06:09:38.249Z,100197.19
2022-12-08T06:12:21.769Z,100202.88
2022-12-08T06:15:05.717Z,100194.16
2022-12-08T06:17:49.238Z,100184.88
2022-12-08T06:20:32.940Z,100191.19
2022-12-08T06:23:16.602Z,100191.38
2022-12-08T06:26:12.349Z,100190.25
2022-12-08T06:28:55.999Z,100183.19
2022-12-08T06:31:39.774Z,100197.78
2022-12-08T06:34:23.349Z,100196.34
2022-12-08T06:37:06.832Z,100195.94
2022-12-08T06:39:50.477Z,100198.59
2022-12-08T06:42:54.197Z,100198.59
2022-12-08T06:45:37.742Z,100202.03
2022-12-08T06:48:21.371Z,100199.34
2022-12-08T06:51:31.165Z,100204.06
2022-12-08T06:54:14.862Z,100199.63
2022-12-08T06:56:58.447Z,100200.06
2022-12-08T06:59:42.059Z,100207.91
2022-12-08T07:02:25.698Z,100207.28
2022-12-08T07:05:09.392Z,100206.25
2022-12-08T07:07:53.036Z,100211.94
2022-12-08T07:10:36.949Z,100211.81
2022-12-08T07:13:20.528Z,100215.34
2022-12-08T07:16:09.486Z,100215.34
2022-12-08T07:18:53.146Z,100219.16
2022-12-08T07:21:37.055Z,100222.44
2022-12-08T07:24:20.688Z,100222.34
2022-12-08T07:27:04.244Z,100216.38
2022-12-08T07:29:47.844Z,100218.88
2022-12-08T07:32:31.538Z,100216.47
2022-12-08T07:35:15.165Z,100218.97
2022-12-08T07:37:59.022Z,100220.56
2022-12-08T07:40:42.495Z,100224.47
2022-12-08T07:43:26.135Z,100220.38
2022-12-08T07:46:17.284Z,100217.69
2022-12-08T07:49:00.911Z,100216.25
2022-12-08T07:51:44.407Z,100213.13
2022-12-08T07:54:28.178Z,100210.38
2022-12-08T07:57:11.727Z,100208.09
2022-12-08T07:59:55.175Z,100216.75
2022-12-08T08:02:39.046Z,100214.84
2022-12-08T08:05:23.399Z,100219.41
2022-12-08T08:08:07.029Z,100210.88
2022-12-08T08:10:50.666Z,100212.47
2022-12-08T08:13:34.284Z,100214.16
2022-12-08T08:16:19.786Z,100215.13
2022-12-08T08:19:03.427Z,100219.66
2022-12-08T08:21:47.018Z,100217.75
2022-12-08T08:24:30.541Z,100218.81
2022-12-08T08:27:14.108Z,100230.97
2022-12-08T08:29:57.689Z,100227.50
2022-12-08T08:32:42.023Z,100227.44
2022-12-08T08:35:25.834Z,100220.16
2022-12-08T08:38:09.328Z,100222.38
2022-12-08T08:40:52.794Z,100230.13
2022-12-08T08:43:38.524Z,100229.34
2022-12-08T08:46:22.512Z,100213.63
2022-12-08T08:49:06.276Z,100217.25
2022-12-08T08:51:49.944Z,100222.44
2022-12-08T08:54:34.289Z,100219.00
2022-12-08T08:57:22.133Z,100224.91
2022-12-08T09:00:12.590Z,100224.41
2022-12-08T09:02:56.070Z,100222.91
2022-12-08T09:05:41.388Z,100220.56
2022-12-08T09:08:25.223Z,100215.94
2022-12-08T09:11:09.713Z,100220.81
2022-12-08T09:13:54.847Z,100218.19
2022-12-08T09:16:42.187Z,100221.16
2022-12-08T09:19:26.290Z,100202.97
2022-12-08T09:22:09.866Z,100202.53
2022-12-08T09:24:53.484Z,100192.56
2022-12-08T09:27:36.945Z,100200.75
2022-12-08T09:30:20.434Z,100193.63
2022-12-08T09:33:04.058Z,100181.88
2022-12-08T09:35:47.637Z,100189.34
2022-12-08T09:38:32.177Z,100182.38
2022-12-08T09:41:44.835Z,100178.53
2022-12-08T09:44:42.211Z,100181.59
2022-12-08T09:47:41.880Z,100181.94
2022-12-08T09:50:53.788Z,100191.78
2022-12-08T09:53:50.694Z,100179.47
2022-12-08T09:56:37.793Z,100178.25
2022-12-08T09:59:36.541Z,100183.22
2022-12-08T10:02:25.483Z,100169.22
2022-12-08T10:05:15.559Z,100169.06
2022-12-08T10:08:19.662Z,100169.22
2022-12-08T10:11:53.155Z,100169.38
2022-12-08T10:19:24.275Z,100171.75
2022-12-08T10:22:42.842Z,100167.41
2022-12-08T10:25:44.855Z,100158.53
2022-12-08T10:28:28.566Z,100164.03
2022-12-08T10:31:19.378Z,100153.97
2022-12-08T10:34:26.143Z,100156.31
2022-12-08T10:37:10.800Z,100147.09
2022-12-08T10:40:21.241Z,100150.50
2022-12-08T10:43:07.114Z,100146.38
2022-12-08T10:45:52.472Z,100145.53
2022-12-08T10:48:36.005Z,100142.94
2022-12-08T10:51:34.584Z,100137.88
2022-12-08T10:54:36.332Z,100129.84
2022-12-08T10:57:25.448Z,100140.50
2022-12-08T11:00:18.882Z,100144.38
2022-12-08T11:03:05.156Z,100139.22
2022-12-08T11:05:49.055Z,100139.50
2022-12-08T11:08:32.942Z,100131.13
2022-12-08T11:11:18.499Z,100123.31
2022-12-08T11:14:08.558Z,100127.03
2022-12-08T11:17:02.886Z,100111.16
2022-12-08T11:20:01.111Z,100125.50
2022-12-08T11:22:54.476Z,100124.03
2022-12-08T11:25:38.300Z,100113.66
2022-12-08T11:28:26.509Z,100113.38
2022-12-08T11:31:34.827Z,100107.38
2022-12-08T11:34:34.275Z,100101.78
2022-12-08T11:37:40.110Z,100105.91
2022-12-08T11:40:31.776Z,100112.03
2022-12-08T11:43:35.450Z,100111.66
2022-12-08T11:46:32.683Z,100107.41
2022-12-08T11:49:18.305Z,100111.66
2022-12-08T11:52:30.846Z,100109.72
2022-12-08T11:55:45.218Z,100100.25
2022-12-08T11:59:01.619Z,100113.22
2022-12-08T12:01:45.234Z,100110.97
2022-12-08T12:04:45.954Z,100104.81
2022-12-08T12:08:02.266Z,100112.44
2022-12-08T12:11:46.819Z,100111.88
2022-12-08T12:15:06.412Z,100115.50
2022-12-08T12:18:11.945Z,100116.34
2022-12-08T12:21:12.391Z,100120.53
2022-12-08T12:24:01.445Z,100123.69
2022-12-08T12:26:59.876Z,100114.41
2022-12-08T12:29:59.103Z,100116.81
2022-12-08T12:33:00.528Z,100115.16
2022-12-08T12:35:48.355Z,100108.84
2022-12-08T12:39:01.802Z,100117.81
2022-12-08T12:41:59.832Z,100116.19
2022-12-08T12:44:43.628Z,100115.03
2022-12-08T12:48:00.538Z,100107.75
2022-12-08T12:50:48.663Z,100110.81
2022-12-08T12:53:35.051Z,100110.03
2022-12-08T12:56:51.028Z,100110.97
2022-12-08T13:00:03.283Z,100109.59
2022-12-08T13:02:51.868Z,100108.03
2022-12-08T13:05:53.074Z,100109.84
2022-12-08T13:08:36.713Z,100113.13
2022-12-08T13:11:23.445Z,100110.03
2022-12-08T13:14:07.179Z,100109.72
2022-12-08T13:16:56.225Z,100102.69
2022-12-08T13:19:44.358Z,100104.84
2022-12-08T13:22:54.733Z,100101.09
2022-12-08T13:25:49.486Z,100099.56
2022-12-08T13:28:32.985Z,100104.22
2022-12-08T13:31:35.308Z,100107.16
2022-12-08T13:34:46.630Z,100107.28
2022-12-08T13:37:54.352Z,100095.19
2022-12-08T13:40:43.788Z,100101.97
2022-12-08T13:43:55.808Z,100102.75
2022-12-08T13:47:31.680Z,100109.97
2022-12-08T13:51:23.765Z,100103.19
2022-12-08T13:57:05.604Z,100104.38
2022-12-08T13:59:49.057Z,100112.97
2022-12-08T14:02:46.970Z,100106.25
2022-12-08T14:06:11.184Z,100106.31
2022-12-08T14:09:02.379Z,100104.91
2022-12-08T14:12:05.937Z,100108.91
2022-12-08T14:15:03.734Z,100100.56
2022-12-08T14:17:56.103Z,100103.41
2022-12-08T14:20:58.309Z,100099.59
2022-12-08T14:23:45.028Z,100108.53
2022-12-08T14:26:35.396Z,100115.78
2022-12-08T14:29:40.782Z,100110.59
2022-12-08T14:32:33.102Z,100113.53
2022-12-08T14:35:30.251Z,100106.38
2022-12-08T14:38:20.266Z,100108.91
2022-12-08T14:41:09.379Z,100109.59
2022-12-08T14:44:01.876Z,100117.91
2022-12-08T14:47:10.746Z,100113.56
2022-12-08T14:49:54.340Z,100129.13
2022-12-08T14:52:44.570Z,100143.38
2022-12-08T14:55:37.832Z,100143.69
2022-12-08T14:58:30.350Z,100138.59
2022-12-08T15:01:23.524Z,100136.84
2022-12-08T15:04:13.103Z,100142.25
2022-12-08T15:07:05.117Z,100136.94
2022-12-08T15:10:21.318Z,100133.63
2022-12-08T15:13:10.834Z,100144.63
2022-12-08T15:15:57.980Z,100143.81
2022-12-08T15:18:41.847Z,100150.53
2022-12-08T15:21:32.651Z,100146.66
2022-12-08T15:24:17.093Z,100143.81
2022-12-08T15:27:00.607Z,100145.66
2022-12-08T15:29:44.494Z,100144.41
2022-12-08T15:32:27.990Z,100147.16
2022-12-08T15:35:16.060Z,100150.25
2022-12-08T15:37:59.760Z,100156.06
2022-12-08T15:40:43.286Z,100158.50
2022-12-08T15:43:27.815Z,100146.19
2022-12-08T15:46:12.176Z,100158.91
2022-12-08T15:48:58.254Z,100162.25
2022-12-08T15:51:42.121Z,100165.13
2022-12-08T15:54:25.889Z,100166.25
2022-12-08T15:57:53.500Z,100165.22
2022-12-08T16:09:59.478Z,100164.91
2022-12-08T16:16:13.239Z,100162.44
2022-12-08T18:44:09.758Z,100225.44
2022-12-08T18:47:08.624Z,100226.44
2022-12-08T18:50:26.536Z,100232.03
2022-12-08T18:53:26.353Z,100237.91
2022-12-08T18:56:29.887Z,100237.50
2022-12-08T18:59:15.327Z,100239.75
2022-12-08T19:02:00.784Z,100248.94
2022-12-08T19:04:44.907Z,100246.28
2022-12-08T19:07:28.570Z,100249.97
2022-12-08T19:10:13.509Z,100241.31
2022-12-08T19:12:57.759Z,100245.78
2022-12-08T19:15:41.863Z,100243.66
2022-12-08T19:18:25.509Z,100243.59
2022-12-08T19:21:10.795Z,100250.97
2022-12-08T19:23:58.436Z,100250.66
2022-12-08T19:26:43.380Z,100252.59
2022-12-08T19:29:27.214Z,100262.81
2022-12-08T19:32:11.901Z,100265.06
2022-12-08T19:34:55.724Z,100259.59
2022-12-08T19:37:41.967Z,100263.69
2022-12-08T19:40:44.206Z,100263.03
2022-12-08T19:43:46.876Z,100268.06
2022-12-08T19:46:33.570Z,100266.34
2022-12-08T19:49:19.542Z,100272.13
2022-12-08T19:52:04.213Z,100280.56
2022-12-08T19:54:47.752Z,100284.25
2022-12-08T19:57:31.568Z,100278.47
2022-12-08T20:00:16.409Z,100288.41
2022-12-08T20:03:02.363Z,100290.94
2022-12-08T20:05:49.769Z,100287.28
2022-12-08T20:08:33.647Z,100297.06
2022-12-08T20:11:17.259Z,100288.63
2022-12-08T20:14:00.855Z,100291.28
2022-12-08T20:16:44.524Z,100297.06
2022-12-08T20:19:28.077Z,100296.13
2022-12-08T20:22:11.658Z,100300.75
2022-12-08T20:25:00.727Z,100288.72
2022-12-08T20:27:44.599Z,100285.91
2022-12-08T20:30:28.518Z,100289.19
2022-12-08T20:33:13.941Z,100286.09
2022-12-08T20:36:04.860Z,100287.28
2022-12-08T20:38:53.028Z,100294.78
2022-12-08T20:41:39.302Z,100302.06
2022-12-08T20:44:23.281Z,100290.88
2022-12-08T20:47:06.858Z,100316.09
2022-12-08T20:49:50.674Z,100308.25
2022-12-08T20:52:34.453Z,100301.06
2022-12-08T20:55:18.280Z,100308.38
2022-12-08T20:58:02.555Z,100302.63
2022-12-08T21:00:46.440Z,100308.25
2022-12-08T21:03:30.228Z,100307.72
2022-12-08T21:06:16.330Z,100316.94
2022-12-08T21:09:00.455Z,100319.75
2022-12-08T21:11:44.840Z,100319.50
2022-12-08T21:14:28.503Z,100316.44
2022-12-08T21:17:12.443Z,100321.75
2022-12-08T21:19:56.892Z,100322.22
2022-12-08T21:22:40.864Z,100333.00
2022-12-08T21:25:25.283Z,100321.19
2022-12-08T21:28:09.307Z,100328.34
2022-12-08T21:30:54.011Z,100339.00
2022-12-08T21:33:38.359Z,100334.25
2022-12-08T21:36:22.955Z,100338.25
2022-12-08T21:39:13.161Z,100337.09
2022-12-08T21:42:17.458Z,100333.94
2022-12-08T21:45:02.480Z,100345.44
2022-12-08T21:47:47.776Z,100343.50
2022-12-08T21:50:31.845Z,100351.16
2022-12-08T21:53:15.632Z,100353.28
2022-12-08T21:55:59.512Z,100344.19
2022-12-08T21:58:43.133Z,100342.63
2022-12-08T22:01:27.189Z,100333.69
2022-12-08T22:04:16.056Z,100342.50
2022-12-08T22:06:59.971Z,100349.44
2022-12-08T22:09:43.813Z,100347.03
2022-12-08T22:12:27.631Z,100340.22
2022-12-08T22:15:11.999Z,100347.22
2022-12-08T22:17:56.363Z,100343.00
2022-12-08T23:21:38.071Z,100353.34
2022-12-08T23:24:21.718Z,100343.16
2022-12-08T23:27:05.203Z,100344.25
2022-12-08T23:29:48.854Z,100340.75
2022-12-08T23:32:32.381Z,100342.63
2022-12-08T23:35:16.079Z,100346.91
2022-12-08T23:37:59.829Z,100338.88
2022-12-08T23:40:43.320Z,100345.03
2022-12-08T23:43:26.894Z,100339.66
2022-12-08T23:50:06.491Z,100338.06
